VLG94 GCLP-EIDW
Flight info
| Callsign | VLG94 |
|---|---|
| Flight time | N/A |
| Altitude | 38000 |
| Route | VASTO DCT NIDEB DCT TIGGI DCT IBIDO DCT XERES DCT ADVAT/M079F380 T290 GELPO DCT JABEX/N0455F380 DCT BIBLA DCT SOVIX DCT CML DCT SUTEX SUTEX4L |
| Aircraft | A20N/M-SDE2E3FGHIRWXY/LB1 |
Departure
| Time | 2026-05-04 23:29 |
|---|---|
| Airport | Gran Canaria Airport (GCLP) |
Arrival
| Time | N/A |
|---|---|
| Airport | Dublin Airport (EIDW) |
| Time | Latitude | Longitude | Altitude | Speed | Heading |
|---|---|---|---|---|---|
| 2026-05-04 23:18 | 27.93450 | -15.39002 | 91 ft | 0 kts | 291° |
| 2026-05-04 23:23 | 27.93444 | -15.38983 | 91 ft | 4 kts | 291° |
| 2026-05-04 23:23 | 27.93434 | -15.38955 | 91 ft | 4 kts | 290° |
| 2026-05-04 23:23 | 27.93426 | -15.38930 | 89 ft | 4 kts | 277° |
| 2026-05-04 23:24 | 27.93431 | -15.38906 | 87 ft | 4 kts | 216° |
| 2026-05-04 23:24 | 27.93446 | -15.38896 | 89 ft | 3 kts | 201° |
| 2026-05-04 23:24 | 27.93454 | -15.38892 | 87 ft | 0 kts | 201° |
| 2026-05-04 23:25 | 27.93437 | -15.38900 | 90 ft | 5 kts | 201° |
| 2026-05-04 23:26 | 27.93370 | -15.38929 | 88 ft | 16 kts | 201° |
| 2026-05-04 23:26 | 27.93228 | -15.38991 | 88 ft | 27 kts | 201° |
| 2026-05-04 23:26 | 27.93021 | -15.39033 | 84 ft | 35 kts | 185° |
| 2026-05-04 23:26 | 27.92759 | -15.39046 | 90 ft | 40 kts | 192° |
| 2026-05-04 23:27 | 27.92478 | -15.39170 | 99 ft | 45 kts | 201° |
| 2026-05-04 23:27 | 27.92194 | -15.39295 | 102 ft | 43 kts | 198° |
| 2026-05-04 23:27 | 27.91958 | -15.39285 | 92 ft | 22 kts | 142° |
| 2026-05-04 23:27 | 27.91962 | -15.39198 | 88 ft | 11 kts | 34° |
| 2026-05-04 23:28 | 27.92150 | -15.39118 | 88 ft | 58 kts | 21° |
| 2026-05-04 23:28 | 27.92729 | -15.38864 | 64 ft | 122 kts | 20° |
| 2026-05-04 23:28 | 27.93687 | -15.38445 | 204 ft | 160 kts | 22° |
| 2026-05-04 23:28 | 27.94726 | -15.37958 | 620 ft | 172 kts | 20° |
| 2026-05-04 23:29 | 27.95816 | -15.37477 | 1328 ft | 164 kts | 20° |
| 2026-05-04 23:29 | 27.96869 | -15.36992 | 1938 ft | 172 kts | 25° |
| 2026-05-04 23:29 | 27.98026 | -15.36298 | 2135 ft | 203 kts | 30° |
| 2026-05-04 23:29 | 27.99310 | -15.35401 | 2414 ft | 229 kts | 32° |
| 2026-05-04 23:30 | 28.00679 | -15.34394 | 3112 ft | 231 kts | 32° |